Terminal Aerodrome Forecast
Issued by NWS

Home | Current Version | Previous Version | Text Only | Print | Product List | Glossary Off
Versions: 1 2 3 4 5 6 7 8 9 10 11 12 13 14 15

000
FTUS41 KCLE 241400 AAA
TAFFDY
TAF AMD
KFDY 241457Z 2415/2512 02014KT P6SM SCT025 BKN050
     FM241800 05006KT P6SM SKC
     FM250000 00000KT P6SM SKC=

USA.gov is the U.S. government's official web portal to all federal, state and local government web resources and services.